sensor_id;sensor_type;location;lat;lon;timestamp;P1;durP1;ratioP1;P2;durP2;ratioP2
12076;SDS011;12420;42.676;23.262;2022-08-19T00:00:29;5.80;;;5.30;;
12076;SDS011;12420;42.676;23.262;2022-08-19T00:02:57;6.97;;;5.78;;
12076;SDS011;12420;42.676;23.262;2022-08-19T00:05:23;6.35;;;5.75;;
12076;SDS011;12420;42.676;23.262;2022-08-19T00:07:50;5.22;;;4.82;;
12076;SDS011;12420;42.676;23.262;2022-08-19T00:10:19;5.82;;;5.20;;
12076;SDS011;12420;42.676;23.262;2022-08-19T00:12:46;7.65;;;5.55;;
12076;SDS011;12420;42.676;23.262;2022-08-19T00:15:15;5.53;;;5.13;;
12076;SDS011;12420;42.676;23.262;2022-08-19T00:17:44;5.60;;;5.20;;
12076;SDS011;12420;42.676;23.262;2022-08-19T00:20:12;6.30;;;5.70;;
12076;SDS011;12420;42.676;23.262;2022-08-19T00:22:42;6.27;;;5.50;;
12076;SDS011;12420;42.676;23.262;2022-08-19T00:25:09;6.63;;;5.90;;
12076;SDS011;12420;42.676;23.262;2022-08-19T00:27:38;6.57;;;5.80;;
12076;SDS011;12420;42.676;23.262;2022-08-19T00:30:06;5.47;;;5.07;;
12076;SDS011;12420;42.676;23.262;2022-08-19T00:32:34;5.70;;;5.20;;
12076;SDS011;12420;42.676;23.262;2022-08-19T00:35:01;6.30;;;5.70;;
12076;SDS011;12420;42.676;23.262;2022-08-19T00:37:30;6.20;;;5.70;;
12076;SDS011;12420;42.676;23.262;2022-08-19T00:40:00;6.20;;;5.70;;
12076;SDS011;12420;42.676;23.262;2022-08-19T00:42:27;8.03;;;6.60;;
12076;SDS011;12420;42.676;23.262;2022-08-19T00:44:56;6.43;;;5.83;;
12076;SDS011;12420;42.676;23.262;2022-08-19T00:47:23;10.23;;;5.50;;
12076;SDS011;12420;42.676;23.262;2022-08-19T00:49:50;6.00;;;5.53;;
12076;SDS011;12420;42.676;23.262;2022-08-19T00:52:21;6.20;;;5.53;;
12076;SDS011;12420;42.676;23.262;2022-08-19T00:54:54;6.40;;;5.77;;
12076;SDS011;12420;42.676;23.262;2022-08-19T00:57:22;7.00;;;5.27;;
12076;SDS011;12420;42.676;23.262;2022-08-19T00:59:54;6.07;;;5.47;;
12076;SDS011;12420;42.676;23.262;2022-08-19T01:02:24;6.20;;;5.60;;
12076;SDS011;12420;42.676;23.262;2022-08-19T01:04:53;5.77;;;5.37;;
12076;SDS011;12420;42.676;23.262;2022-08-19T01:07:20;5.80;;;5.20;;
12076;SDS011;12420;42.676;23.262;2022-08-19T01:09:47;5.90;;;5.40;;
12076;SDS011;12420;42.676;23.262;2022-08-19T01:12:16;6.37;;;5.53;;
12076;SDS011;12420;42.676;23.262;2022-08-19T01:14:44;5.65;;;5.15;;
12076;SDS011;12420;42.676;23.262;2022-08-19T01:17:13;5.30;;;4.90;;
12076;SDS011;12420;42.676;23.262;2022-08-19T01:19:41;5.80;;;5.30;;
12076;SDS011;12420;42.676;23.262;2022-08-19T01:22:11;5.57;;;5.17;;
12076;SDS011;12420;42.676;23.262;2022-08-19T01:24:42;7.97;;;5.90;;
12076;SDS011;12420;42.676;23.262;2022-08-19T01:27:09;5.90;;;5.50;;
12076;SDS011;12420;42.676;23.262;2022-08-19T01:29:36;6.30;;;5.70;;
12076;SDS011;12420;42.676;23.262;2022-08-19T01:32:07;7.43;;;5.43;;
12076;SDS011;12420;42.676;23.262;2022-08-19T01:34:37;6.07;;;5.40;;
12076;SDS011;12420;42.676;23.262;2022-08-19T01:37:05;5.90;;;5.50;;
12076;SDS011;12420;42.676;23.262;2022-08-19T01:39:36;9.20;;;5.80;;
12076;SDS011;12420;42.676;23.262;2022-08-19T01:42:06;6.00;;;5.50;;
12076;SDS011;12420;42.676;23.262;2022-08-19T01:44:35;7.17;;;5.97;;
12076;SDS011;12420;42.676;23.262;2022-08-19T01:47:02;7.63;;;6.10;;
12076;SDS011;12420;42.676;23.262;2022-08-19T01:49:30;7.33;;;6.70;;
12076;SDS011;12420;42.676;23.262;2022-08-19T01:51:57;8.27;;;6.23;;
12076;SDS011;12420;42.676;23.262;2022-08-19T01:54:26;10.87;;;6.53;;
12076;SDS011;12420;42.676;23.262;2022-08-19T01:56:56;7.23;;;6.57;;
12076;SDS011;12420;42.676;23.262;2022-08-19T01:59:27;7.53;;;6.67;;
12076;SDS011;12420;42.676;23.262;2022-08-19T02:01:56;9.23;;;6.30;;
12076;SDS011;12420;42.676;23.262;2022-08-19T02:04:23;6.50;;;5.90;;
12076;SDS011;12420;42.676;23.262;2022-08-19T02:06:50;6.73;;;6.03;;
12076;SDS011;12420;42.676;23.262;2022-08-19T02:09:17;6.70;;;6.07;;
12076;SDS011;12420;42.676;23.262;2022-08-19T02:11:44;9.20;;;6.73;;
12076;SDS011;12420;42.676;23.262;2022-08-19T02:14:11;9.30;;;6.07;;
12076;SDS011;12420;42.676;23.262;2022-08-19T02:16:39;6.77;;;6.17;;
12076;SDS011;12420;42.676;23.262;2022-08-19T02:19:06;9.03;;;6.30;;
12076;SDS011;12420;42.676;23.262;2022-08-19T02:21:33;7.20;;;6.60;;
12076;SDS011;12420;42.676;23.262;2022-08-19T02:24:00;6.93;;;6.10;;
12076;SDS011;12420;42.676;23.262;2022-08-19T02:26:27;6.77;;;6.13;;
12076;SDS011;12420;42.676;23.262;2022-08-19T02:28:54;9.27;;;6.50;;
12076;SDS011;12420;42.676;23.262;2022-08-19T02:31:22;7.90;;;6.97;;
12076;SDS011;12420;42.676;23.262;2022-08-19T02:33:52;8.17;;;6.63;;
12076;SDS011;12420;42.676;23.262;2022-08-19T02:36:20;6.80;;;6.20;;
12076;SDS011;12420;42.676;23.262;2022-08-19T02:38:47;7.67;;;6.97;;
12076;SDS011;12420;42.676;23.262;2022-08-19T02:41:17;7.87;;;7.10;;
12076;SDS011;12420;42.676;23.262;2022-08-19T02:43:45;10.30;;;7.20;;
12076;SDS011;12420;42.676;23.262;2022-08-19T02:46:13;7.17;;;6.57;;
12076;SDS011;12420;42.676;23.262;2022-08-19T02:48:42;7.63;;;6.83;;
12076;SDS011;12420;42.676;23.262;2022-08-19T02:51:16;21.83;;;7.70;;
12076;SDS011;12420;42.676;23.262;2022-08-19T02:53:49;12.97;;;6.80;;
12076;SDS011;12420;42.676;23.262;2022-08-19T02:56:17;12.83;;;9.23;;
12076;SDS011;12420;42.676;23.262;2022-08-19T02:58:44;9.47;;;7.10;;
12076;SDS011;12420;42.676;23.262;2022-08-19T03:01:18;7.73;;;6.77;;
12076;SDS011;12420;42.676;23.262;2022-08-19T03:03:46;8.50;;;7.70;;
12076;SDS011;12420;42.676;23.262;2022-08-19T03:06:17;11.57;;;8.77;;
12076;SDS011;12420;42.676;23.262;2022-08-19T03:08:44;11.00;;;8.67;;
12076;SDS011;12420;42.676;23.262;2022-08-19T03:11:13;10.27;;;8.17;;
12076;SDS011;12420;42.676;23.262;2022-08-19T03:13:41;8.47;;;7.73;;
12076;SDS011;12420;42.676;23.262;2022-08-19T03:16:09;12.13;;;8.03;;
12076;SDS011;12420;42.676;23.262;2022-08-19T03:18:36;11.40;;;9.67;;
12076;SDS011;12420;42.676;23.262;2022-08-19T03:21:03;9.80;;;8.70;;
12076;SDS011;12420;42.676;23.262;2022-08-19T03:23:35;9.23;;;7.87;;
12076;SDS011;12420;42.676;23.262;2022-08-19T03:26:03;11.93;;;8.63;;
12076;SDS011;12420;42.676;23.262;2022-08-19T03:28:31;12.20;;;10.17;;
12076;SDS011;12420;42.676;23.262;2022-08-19T03:31:00;11.93;;;8.83;;
12076;SDS011;12420;42.676;23.262;2022-08-19T03:33:28;14.47;;;10.60;;
12076;SDS011;12420;42.676;23.262;2022-08-19T03:36:00;12.50;;;9.73;;
12076;SDS011;12420;42.676;23.262;2022-08-19T03:38:28;15.00;;;9.73;;
12076;SDS011;12420;42.676;23.262;2022-08-19T03:40:58;11.43;;;9.93;;
12076;SDS011;12420;42.676;23.262;2022-08-19T03:43:28;11.13;;;8.70;;
12076;SDS011;12420;42.676;23.262;2022-08-19T03:45:59;11.80;;;8.30;;
12076;SDS011;12420;42.676;23.262;2022-08-19T03:48:27;9.83;;;7.40;;
12076;SDS011;12420;42.676;23.262;2022-08-19T03:50:55;15.73;;;13.30;;
12076;SDS011;12420;42.676;23.262;2022-08-19T03:53:24;11.60;;;9.33;;
12076;SDS011;12420;42.676;23.262;2022-08-19T03:55:51;13.07;;;9.90;;
12076;SDS011;12420;42.676;23.262;2022-08-19T03:58:20;10.73;;;8.60;;
12076;SDS011;12420;42.676;23.262;2022-08-19T04:00:46;13.57;;;8.73;;
12076;SDS011;12420;42.676;23.262;2022-08-19T04:03:13;12.30;;;9.57;;
12076;SDS011;12420;42.676;23.262;2022-08-19T04:05:40;8.57;;;7.73;;
12076;SDS011;12420;42.676;23.262;2022-08-19T04:08:07;11.20;;;7.30;;
12076;SDS011;12420;42.676;23.262;2022-08-19T04:10:35;8.70;;;6.93;;
12076;SDS011;12420;42.676;23.262;2022-08-19T04:13:02;7.10;;;6.40;;
12076;SDS011;12420;42.676;23.262;2022-08-19T04:15:33;9.53;;;6.60;;
12076;SDS011;12420;42.676;23.262;2022-08-19T04:18:06;10.17;;;7.13;;
12076;SDS011;12420;42.676;23.262;2022-08-19T04:20:39;9.63;;;7.10;;
12076;SDS011;12420;42.676;23.262;2022-08-19T04:23:07;9.53;;;8.00;;
12076;SDS011;12420;42.676;23.262;2022-08-19T04:25:35;10.03;;;7.10;;
12076;SDS011;12420;42.676;23.262;2022-08-19T04:28:06;12.50;;;7.60;;
12076;SDS011;12420;42.676;23.262;2022-08-19T04:30:39;11.63;;;7.67;;
12076;SDS011;12420;42.676;23.262;2022-08-19T04:33:07;10.87;;;7.90;;
12076;SDS011;12420;42.676;23.262;2022-08-19T04:35:35;16.33;;;7.67;;
12076;SDS011;12420;42.676;23.262;2022-08-19T04:38:04;12.57;;;7.80;;
12076;SDS011;12420;42.676;23.262;2022-08-19T04:40:31;8.30;;;7.40;;
12076;SDS011;12420;42.676;23.262;2022-08-19T04:43:15;10.93;;;7.67;;
12076;SDS011;12420;42.676;23.262;2022-08-19T04:45:44;7.97;;;7.00;;
12076;SDS011;12420;42.676;23.262;2022-08-19T04:48:11;14.70;;;7.10;;
12076;SDS011;12420;42.676;23.262;2022-08-19T04:50:40;18.77;;;8.67;;
12076;SDS011;12420;42.676;23.262;2022-08-19T04:53:08;13.60;;;8.57;;
12076;SDS011;12420;42.676;23.262;2022-08-19T04:55:38;8.30;;;7.50;;
12076;SDS011;12420;42.676;23.262;2022-08-19T04:58:05;9.27;;;8.30;;
12076;SDS011;12420;42.676;23.262;2022-08-19T05:00:32;10.23;;;8.37;;
12076;SDS011;12420;42.676;23.262;2022-08-19T05:03:03;12.33;;;8.23;;
12076;SDS011;12420;42.676;23.262;2022-08-19T05:05:37;15.27;;;8.80;;
12076;SDS011;12420;42.676;23.262;2022-08-19T05:08:07;11.50;;;8.60;;
12076;SDS011;12420;42.676;23.262;2022-08-19T05:10:37;12.37;;;8.20;;
12076;SDS011;12420;42.676;23.262;2022-08-19T05:13:07;13.03;;;8.07;;
12076;SDS011;12420;42.676;23.262;2022-08-19T05:15:35;12.37;;;8.47;;
12076;SDS011;12420;42.676;23.262;2022-08-19T05:18:04;10.40;;;7.82;;
12076;SDS011;12420;42.676;23.262;2022-08-19T05:20:48;15.43;;;8.00;;
12076;SDS011;12420;42.676;23.262;2022-08-19T05:23:32;12.77;;;9.00;;
12076;SDS011;12420;42.676;23.262;2022-08-19T05:25:59;12.00;;;8.07;;
12076;SDS011;12420;42.676;23.262;2022-08-19T05:28:26;14.43;;;8.33;;
12076;SDS011;12420;42.676;23.262;2022-08-19T05:30:55;10.40;;;8.70;;
12076;SDS011;12420;42.676;23.262;2022-08-19T05:33:23;10.00;;;8.50;;
12076;SDS011;12420;42.676;23.262;2022-08-19T05:35:50;13.52;;;8.82;;
12076;SDS011;12420;42.676;23.262;2022-08-19T05:38:19;13.80;;;8.48;;
12076;SDS011;12420;42.676;23.262;2022-08-19T05:40:46;13.02;;;8.07;;
12076;SDS011;12420;42.676;23.262;2022-08-19T05:43:14;13.37;;;8.30;;
12076;SDS011;12420;42.676;23.262;2022-08-19T05:45:42;22.33;;;8.88;;
12076;SDS011;12420;42.676;23.262;2022-08-19T05:48:09;12.35;;;8.95;;
12076;SDS011;12420;42.676;23.262;2022-08-19T05:50:38;14.95;;;8.85;;
12076;SDS011;12420;42.676;23.262;2022-08-19T05:53:06;18.90;;;8.68;;
12076;SDS011;12420;42.676;23.262;2022-08-19T05:55:34;11.05;;;8.77;;
12076;SDS011;12420;42.676;23.262;2022-08-19T05:58:03;13.77;;;8.60;;
12076;SDS011;12420;42.676;23.262;2022-08-19T06:00:34;15.68;;;9.00;;
12076;SDS011;12420;42.676;23.262;2022-08-19T06:03:01;18.60;;;9.57;;
12076;SDS011;12420;42.676;23.262;2022-08-19T06:05:28;15.85;;;9.27;;
12076;SDS011;12420;42.676;23.262;2022-08-19T06:07:56;11.35;;;9.50;;
12076;SDS011;12420;42.676;23.262;2022-08-19T06:10:24;14.18;;;9.80;;
12076;SDS011;12420;42.676;23.262;2022-08-19T06:12:52;24.50;;;12.07;;
12076;SDS011;12420;42.676;23.262;2022-08-19T06:15:21;19.63;;;9.80;;
12076;SDS011;12420;42.676;23.262;2022-08-19T06:17:50;14.85;;;9.30;;
12076;SDS011;12420;42.676;23.262;2022-08-19T06:20:17;12.18;;;9.23;;
12076;SDS011;12420;42.676;23.262;2022-08-19T06:22:45;16.77;;;10.15;;
12076;SDS011;12420;42.676;23.262;2022-08-19T06:25:14;10.32;;;8.93;;
12076;SDS011;12420;42.676;23.262;2022-08-19T06:27:42;19.77;;;9.82;;
12076;SDS011;12420;42.676;23.262;2022-08-19T06:30:09;15.68;;;9.57;;
12076;SDS011;12420;42.676;23.262;2022-08-19T06:32:37;19.45;;;9.57;;
12076;SDS011;12420;42.676;23.262;2022-08-19T06:35:04;12.45;;;9.68;;
12076;SDS011;12420;42.676;23.262;2022-08-19T06:37:32;15.57;;;10.02;;
12076;SDS011;12420;42.676;23.262;2022-08-19T06:39:59;13.80;;;9.25;;
12076;SDS011;12420;42.676;23.262;2022-08-19T06:42:27;15.45;;;10.75;;
12076;SDS011;12420;42.676;23.262;2022-08-19T06:44:57;16.77;;;11.00;;
12076;SDS011;12420;42.676;23.262;2022-08-19T06:47:23;19.85;;;10.80;;
12076;SDS011;12420;42.676;23.262;2022-08-19T06:49:53;17.90;;;10.50;;
12076;SDS011;12420;42.676;23.262;2022-08-19T06:52:25;18.10;;;10.90;;
12076;SDS011;12420;42.676;23.262;2022-08-19T06:54:53;18.00;;;10.52;;
12076;SDS011;12420;42.676;23.262;2022-08-19T06:57:20;15.88;;;11.27;;
12076;SDS011;12420;42.676;23.262;2022-08-19T06:59:49;19.98;;;11.77;;
12076;SDS011;12420;42.676;23.262;2022-08-19T07:02:16;17.90;;;11.63;;
12076;SDS011;12420;42.676;23.262;2022-08-19T07:04:43;18.00;;;10.85;;
12076;SDS011;12420;42.676;23.262;2022-08-19T07:07:11;15.43;;;10.60;;
12076;SDS011;12420;42.676;23.262;2022-08-19T07:09:40;20.73;;;10.95;;
12076;SDS011;12420;42.676;23.262;2022-08-19T07:12:09;19.42;;;10.98;;
12076;SDS011;12420;42.676;23.262;2022-08-19T07:14:38;19.75;;;11.40;;
12076;SDS011;12420;42.676;23.262;2022-08-19T07:17:07;16.15;;;10.63;;
12076;SDS011;12420;42.676;23.262;2022-08-19T07:19:35;13.27;;;10.30;;
12076;SDS011;12420;42.676;23.262;2022-08-19T07:22:02;13.05;;;10.85;;
12076;SDS011;12420;42.676;23.262;2022-08-19T07:24:31;17.17;;;10.63;;
12076;SDS011;12420;42.676;23.262;2022-08-19T07:26:58;13.82;;;9.93;;
12076;SDS011;12420;42.676;23.262;2022-08-19T07:29:30;14.02;;;9.73;;
12076;SDS011;12420;42.676;23.262;2022-08-19T07:31:58;12.48;;;9.40;;
12076;SDS011;12420;42.676;23.262;2022-08-19T07:34:29;15.02;;;10.13;;
12076;SDS011;12420;42.676;23.262;2022-08-19T07:36:59;16.20;;;9.52;;
12076;SDS011;12420;42.676;23.262;2022-08-19T07:39:27;12.35;;;9.20;;
12076;SDS011;12420;42.676;23.262;2022-08-19T07:41:55;12.48;;;9.20;;
12076;SDS011;12420;42.676;23.262;2022-08-19T07:44:24;14.25;;;8.80;;
12076;SDS011;12420;42.676;23.262;2022-08-19T07:46:52;10.60;;;9.07;;
12076;SDS011;12420;42.676;23.262;2022-08-19T07:49:22;15.68;;;9.30;;
12076;SDS011;12420;42.676;23.262;2022-08-19T07:51:51;14.95;;;8.65;;
12076;SDS011;12420;42.676;23.262;2022-08-19T07:54:21;18.67;;;8.65;;
12076;SDS011;12420;42.676;23.262;2022-08-19T07:56:49;14.00;;;8.80;;
12076;SDS011;12420;42.676;23.262;2022-08-19T07:59:17;9.48;;;8.43;;
12076;SDS011;12420;42.676;23.262;2022-08-19T08:01:45;10.80;;;8.13;;
12076;SDS011;12420;42.676;23.262;2022-08-19T08:04:13;10.88;;;8.15;;
12076;SDS011;12420;42.676;23.262;2022-08-19T08:06:58;12.18;;;7.93;;
12076;SDS011;12420;42.676;23.262;2022-08-19T08:09:43;12.07;;;8.32;;
12076;SDS011;12420;42.676;23.262;2022-08-19T08:12:12;13.65;;;8.57;;
12076;SDS011;12420;42.676;23.262;2022-08-19T08:14:42;12.32;;;8.20;;
12076;SDS011;12420;42.676;23.262;2022-08-19T08:17:11;12.85;;;7.28;;
12076;SDS011;12420;42.676;23.262;2022-08-19T08:19:38;8.18;;;7.35;;
12076;SDS011;12420;42.676;23.262;2022-08-19T08:22:08;14.98;;;7.90;;
12076;SDS011;12420;42.676;23.262;2022-08-19T08:24:56;7.55;;;6.95;;
12076;SDS011;12420;42.676;23.262;2022-08-19T08:27:27;9.02;;;6.85;;
12076;SDS011;12420;42.676;23.262;2022-08-19T08:29:56;7.43;;;6.57;;
12076;SDS011;12420;42.676;23.262;2022-08-19T08:32:22;14.20;;;6.95;;
12076;SDS011;12420;42.676;23.262;2022-08-19T08:34:49;8.13;;;7.03;;
12076;SDS011;12420;42.676;23.262;2022-08-19T08:37:17;10.40;;;6.85;;
12076;SDS011;12420;42.676;23.262;2022-08-19T08:39:44;14.80;;;6.70;;
12076;SDS011;12420;42.676;23.262;2022-08-19T08:42:12;9.93;;;6.80;;
12076;SDS011;12420;42.676;23.262;2022-08-19T08:44:47;9.27;;;6.22;;
12076;SDS011;12420;42.676;23.262;2022-08-19T08:47:20;8.13;;;5.20;;
12076;SDS011;12420;42.676;23.262;2022-08-19T08:49:51;8.15;;;6.13;;
12076;SDS011;12420;42.676;23.262;2022-08-19T08:52:24;6.38;;;5.07;;
12076;SDS011;12420;42.676;23.262;2022-08-19T08:54:54;8.50;;;5.40;;
12076;SDS011;12420;42.676;23.262;2022-08-19T08:57:26;5.68;;;4.80;;
12076;SDS011;12420;42.676;23.262;2022-08-19T08:59:57;7.00;;;5.80;;
12076;SDS011;12420;42.676;23.262;2022-08-19T09:02:34;9.63;;;5.68;;
12076;SDS011;12420;42.676;23.262;2022-08-19T09:05:02;6.15;;;5.53;;
12076;SDS011;12420;42.676;23.262;2022-08-19T09:07:36;13.25;;;5.72;;
12076;SDS011;12420;42.676;23.262;2022-08-19T09:10:15;10.43;;;5.72;;
12076;SDS011;12420;42.676;23.262;2022-08-19T09:12:51;8.15;;;5.18;;
12076;SDS011;12420;42.676;23.262;2022-08-19T09:15:27;9.15;;;6.38;;
12076;SDS011;12420;42.676;23.262;2022-08-19T09:17:59;8.77;;;5.68;;
12076;SDS011;12420;42.676;23.262;2022-08-19T09:20:30;7.07;;;5.60;;
12076;SDS011;12420;42.676;23.262;2022-08-19T09:22:58;8.68;;;5.00;;
12076;SDS011;12420;42.676;23.262;2022-08-19T09:25:25;5.47;;;4.38;;
12076;SDS011;12420;42.676;23.262;2022-08-19T09:27:53;7.07;;;4.57;;
12076;SDS011;12420;42.676;23.262;2022-08-19T09:30:22;6.47;;;4.22;;
12076;SDS011;12420;42.676;23.262;2022-08-19T09:32:51;4.53;;;4.22;;
12076;SDS011;12420;42.676;23.262;2022-08-19T09:35:19;5.57;;;4.68;;
12076;SDS011;12420;42.676;23.262;2022-08-19T09:37:48;6.57;;;4.85;;
12076;SDS011;12420;42.676;23.262;2022-08-19T09:40:19;6.80;;;4.85;;
12076;SDS011;12420;42.676;23.262;2022-08-19T09:42:46;5.72;;;4.00;;
12076;SDS011;12420;42.676;23.262;2022-08-19T09:45:15;4.35;;;3.95;;
12076;SDS011;12420;42.676;23.262;2022-08-19T09:47:42;4.45;;;4.10;;
12076;SDS011;12420;42.676;23.262;2022-08-19T09:50:10;6.05;;;4.07;;
12076;SDS011;12420;42.676;23.262;2022-08-19T09:52:38;4.65;;;4.20;;
12076;SDS011;12420;42.676;23.262;2022-08-19T09:55:08;12.10;;;4.75;;
12076;SDS011;12420;42.676;23.262;2022-08-19T09:57:48;4.35;;;4.05;;
12076;SDS011;12420;42.676;23.262;2022-08-19T10:00:15;4.45;;;4.05;;
12076;SDS011;12420;42.676;23.262;2022-08-19T10:02:42;4.10;;;3.80;;
12076;SDS011;12420;42.676;23.262;2022-08-19T10:05:09;4.18;;;3.88;;
12076;SDS011;12420;42.676;23.262;2022-08-19T10:07:53;5.35;;;4.93;;
12076;SDS011;12420;42.676;23.262;2022-08-19T10:10:24;7.28;;;4.13;;
12076;SDS011;12420;42.676;23.262;2022-08-19T10:12:54;4.57;;;3.83;;
12076;SDS011;12420;42.676;23.262;2022-08-19T10:15:24;8.10;;;4.53;;
12076;SDS011;12420;42.676;23.262;2022-08-19T10:17:50;8.98;;;4.70;;
12076;SDS011;12420;42.676;23.262;2022-08-19T10:20:17;7.50;;;6.35;;
12076;SDS011;12420;42.676;23.262;2022-08-19T10:22:46;5.78;;;4.00;;
12076;SDS011;12420;42.676;23.262;2022-08-19T10:25:13;4.43;;;4.03;;
12076;SDS011;12420;42.676;23.262;2022-08-19T10:27:41;6.43;;;4.20;;
12076;SDS011;12420;42.676;23.262;2022-08-19T10:30:13;7.85;;;4.00;;
12076;SDS011;12420;42.676;23.262;2022-08-19T10:32:39;4.72;;;4.10;;
12076;SDS011;12420;42.676;23.262;2022-08-19T10:35:06;5.35;;;4.35;;
12076;SDS011;12420;42.676;23.262;2022-08-19T10:37:36;7.07;;;4.30;;
12076;SDS011;12420;42.676;23.262;2022-08-19T10:40:04;4.53;;;4.10;;
12076;SDS011;12420;42.676;23.262;2022-08-19T10:42:36;6.10;;;4.82;;
12076;SDS011;12420;42.676;23.262;2022-08-19T10:45:04;6.45;;;4.70;;
12076;SDS011;12420;42.676;23.262;2022-08-19T10:47:36;7.28;;;5.05;;
12076;SDS011;12420;42.676;23.262;2022-08-19T10:50:05;10.80;;;5.35;;
12076;SDS011;12420;42.676;23.262;2022-08-19T10:52:52;6.40;;;4.85;;
12076;SDS011;12420;42.676;23.262;2022-08-19T10:55:24;6.15;;;4.45;;
12076;SDS011;12420;42.676;23.262;2022-08-19T10:58:12;6.47;;;5.07;;
12076;SDS011;12420;42.676;23.262;2022-08-19T11:00:50;5.50;;;5.00;;
12076;SDS011;12420;42.676;23.262;2022-08-19T11:03:22;5.93;;;5.00;;
12076;SDS011;12420;42.676;23.262;2022-08-19T11:05:59;5.93;;;4.68;;
12076;SDS011;12420;42.676;23.262;2022-08-19T11:08:28;5.47;;;4.97;;
12076;SDS011;12420;42.676;23.262;2022-08-19T11:11:00;7.80;;;5.30;;
12076;SDS011;12420;42.676;23.262;2022-08-19T11:13:28;6.13;;;5.47;;
12076;SDS011;12420;42.676;23.262;2022-08-19T11:15:59;8.55;;;6.38;;
12076;SDS011;12420;42.676;23.262;2022-08-19T11:18:30;7.90;;;5.13;;
12076;SDS011;12420;42.676;23.262;2022-08-19T11:21:04;7.72;;;5.10;;
12076;SDS011;12420;42.676;23.262;2022-08-19T11:23:32;6.28;;;5.07;;
12076;SDS011;12420;42.676;23.262;2022-08-19T11:25:59;7.78;;;5.13;;
12076;SDS011;12420;42.676;23.262;2022-08-19T11:28:26;7.97;;;6.03;;
12076;SDS011;12420;42.676;23.262;2022-08-19T11:30:53;8.65;;;5.28;;
12076;SDS011;12420;42.676;23.262;2022-08-19T11:33:20;6.10;;;5.10;;
12076;SDS011;12420;42.676;23.262;2022-08-19T11:35:48;6.75;;;5.25;;
12076;SDS011;12420;42.676;23.262;2022-08-19T11:38:15;7.30;;;5.57;;
12076;SDS011;12420;42.676;23.262;2022-08-19T11:40:43;6.00;;;5.03;;
12076;SDS011;12420;42.676;23.262;2022-08-19T11:43:10;5.65;;;5.13;;
12076;SDS011;12420;42.676;23.262;2022-08-19T11:45:37;7.72;;;6.07;;
12076;SDS011;12420;42.676;23.262;2022-08-19T11:48:09;5.30;;;4.90;;
12076;SDS011;12420;42.676;23.262;2022-08-19T11:50:36;5.55;;;5.10;;
12076;SDS011;12420;42.676;23.262;2022-08-19T11:53:09;7.40;;;4.70;;
12076;SDS011;12420;42.676;23.262;2022-08-19T11:55:39;6.03;;;4.88;;
12076;SDS011;12420;42.676;23.262;2022-08-19T11:58:09;5.38;;;4.93;;
12076;SDS011;12420;42.676;23.262;2022-08-19T12:00:37;8.27;;;4.95;;
12076;SDS011;12420;42.676;23.262;2022-08-19T12:03:04;5.20;;;4.70;;
12076;SDS011;12420;42.676;23.262;2022-08-19T12:05:31;5.97;;;5.13;;
12076;SDS011;12420;42.676;23.262;2022-08-19T12:07:58;8.45;;;5.32;;
12076;SDS011;12420;42.676;23.262;2022-08-19T12:10:26;11.75;;;5.10;;
12076;SDS011;12420;42.676;23.262;2022-08-19T12:12:53;7.60;;;4.85;;
12076;SDS011;12420;42.676;23.262;2022-08-19T12:15:20;7.22;;;5.22;;
12076;SDS011;12420;42.676;23.262;2022-08-19T12:17:47;8.38;;;4.80;;
12076;SDS011;12420;42.676;23.262;2022-08-19T12:20:22;8.63;;;5.43;;
12076;SDS011;12420;42.676;23.262;2022-08-19T12:22:51;5.00;;;4.60;;
12076;SDS011;12420;42.676;23.262;2022-08-19T12:25:18;6.25;;;4.95;;
12076;SDS011;12420;42.676;23.262;2022-08-19T12:27:47;6.15;;;5.20;;
12076;SDS011;12420;42.676;23.262;2022-08-19T12:30:14;6.40;;;5.13;;
12076;SDS011;12420;42.676;23.262;2022-08-19T12:32:41;5.32;;;4.82;;
12076;SDS011;12420;42.676;23.262;2022-08-19T12:35:08;5.13;;;4.72;;
12076;SDS011;12420;42.676;23.262;2022-08-19T12:37:39;6.47;;;5.00;;
12076;SDS011;12420;42.676;23.262;2022-08-19T12:40:07;7.95;;;5.00;;
12076;SDS011;12420;42.676;23.262;2022-08-19T12:42:36;6.40;;;5.40;;
12076;SDS011;12420;42.676;23.262;2022-08-19T12:45:09;5.15;;;4.78;;
12076;SDS011;12420;42.676;23.262;2022-08-19T12:47:37;5.20;;;4.78;;
12076;SDS011;12420;42.676;23.262;2022-08-19T12:50:04;5.53;;;4.97;;
12076;SDS011;12420;42.676;23.262;2022-08-19T12:52:34;7.20;;;4.88;;
12076;SDS011;12420;42.676;23.262;2022-08-19T12:55:02;7.40;;;4.63;;
12076;SDS011;12420;42.676;23.262;2022-08-19T12:57:31;5.75;;;5.22;;
12076;SDS011;12420;42.676;23.262;2022-08-19T13:00:05;5.95;;;4.63;;
12076;SDS011;12420;42.676;23.262;2022-08-19T13:02:37;5.72;;;5.22;;
12076;SDS011;12420;42.676;23.262;2022-08-19T13:05:07;5.55;;;4.53;;
12076;SDS011;12420;42.676;23.262;2022-08-19T13:07:36;7.63;;;4.72;;
12076;SDS011;12420;42.676;23.262;2022-08-19T13:10:04;6.20;;;4.80;;
12076;SDS011;12420;42.676;23.262;2022-08-19T13:12:32;5.30;;;4.80;;
12076;SDS011;12420;42.676;23.262;2022-08-19T13:14:59;8.65;;;4.85;;
12076;SDS011;12420;42.676;23.262;2022-08-19T13:17:26;6.93;;;4.80;;
12076;SDS011;12420;42.676;23.262;2022-08-19T13:19:54;5.32;;;4.93;;
12076;SDS011;12420;42.676;23.262;2022-08-19T13:22:21;7.00;;;4.72;;
12076;SDS011;12420;42.676;23.262;2022-08-19T13:24:49;20.88;;;5.43;;
12076;SDS011;12420;42.676;23.262;2022-08-19T13:27:16;8.10;;;4.65;;
12076;SDS011;12420;42.676;23.262;2022-08-19T13:29:42;5.47;;;4.80;;
12076;SDS011;12420;42.676;23.262;2022-08-19T13:32:28;8.13;;;4.82;;
12076;SDS011;12420;42.676;23.262;2022-08-19T13:35:15;6.82;;;4.57;;
12076;SDS011;12420;42.676;23.262;2022-08-19T13:37:42;6.40;;;4.47;;
12076;SDS011;12420;42.676;23.262;2022-08-19T13:40:13;8.25;;;4.78;;
12076;SDS011;12420;42.676;23.262;2022-08-19T13:42:43;5.38;;;4.72;;
12076;SDS011;12420;42.676;23.262;2022-08-19T13:45:13;8.35;;;5.10;;
12076;SDS011;12420;42.676;23.262;2022-08-19T13:47:41;6.15;;;4.85;;
12076;SDS011;12420;42.676;23.262;2022-08-19T13:50:15;6.00;;;4.60;;
12076;SDS011;12420;42.676;23.262;2022-08-19T13:53:21;6.10;;;5.20;;
12076;SDS011;12420;42.676;23.262;2022-08-19T13:55:51;6.32;;;5.22;;
12076;SDS011;12420;42.676;23.262;2022-08-19T13:58:24;5.60;;;5.10;;
12076;SDS011;12420;42.676;23.262;2022-08-19T14:00:57;5.65;;;4.97;;
12076;SDS011;12420;42.676;23.262;2022-08-19T14:03:30;6.03;;;4.78;;
12076;SDS011;12420;42.676;23.262;2022-08-19T14:06:06;6.43;;;4.70;;
12076;SDS011;12420;42.676;23.262;2022-08-19T14:08:40;6.35;;;5.30;;
12076;SDS011;12420;42.676;23.262;2022-08-19T14:11:17;6.65;;;4.68;;
12076;SDS011;12420;42.676;23.262;2022-08-19T14:13:44;5.72;;;5.07;;
12076;SDS011;12420;42.676;23.262;2022-08-19T14:16:13;5.90;;;5.15;;
12076;SDS011;12420;42.676;23.262;2022-08-19T14:18:40;6.80;;;5.03;;
12076;SDS011;12420;42.676;23.262;2022-08-19T14:21:13;5.55;;;5.13;;
12076;SDS011;12420;42.676;23.262;2022-08-19T14:23:41;5.70;;;5.18;;
12076;SDS011;12420;42.676;23.262;2022-08-19T14:26:08;5.93;;;5.40;;
12076;SDS011;12420;42.676;23.262;2022-08-19T14:28:40;6.18;;;5.40;;
12076;SDS011;12420;42.676;23.262;2022-08-19T14:31:08;7.43;;;5.70;;
12076;SDS011;12420;42.676;23.262;2022-08-19T14:33:36;7.10;;;5.38;;
12076;SDS011;12420;42.676;23.262;2022-08-19T14:36:06;5.68;;;5.18;;
12076;SDS011;12420;42.676;23.262;2022-08-19T14:38:39;8.40;;;5.47;;
12076;SDS011;12420;42.676;23.262;2022-08-19T14:41:07;7.25;;;5.68;;